createdAt,value
2022-12-15T00:00:51.696Z,-2.29
2022-12-15T00:03:51.701Z,-2.29
2022-12-15T00:06:51.671Z,-2.29
2022-12-15T00:09:51.661Z,-2.19
2022-12-15T00:12:51.658Z,-2.19
2022-12-15T00:15:51.703Z,-2.19
2022-12-15T00:18:51.651Z,-2.19
2022-12-15T00:21:51.658Z,-2.19
2022-12-15T00:24:51.654Z,-2.19
2022-12-15T00:27:51.654Z,-2.19
2022-12-15T00:30:52.058Z,-2.29
2022-12-15T00:33:51.657Z,-2.29
2022-12-15T00:36:51.647Z,-2.29
2022-12-15T00:39:51.652Z,-2.29
2022-12-15T00:42:51.648Z,-2.19
2022-12-15T00:45:51.681Z,-2.19
2022-12-15T00:48:51.651Z,-2.19
2022-12-15T00:51:51.645Z,-2.29
2022-12-15T00:54:51.645Z,-2.29
2022-12-15T00:57:51.639Z,-2.29
2022-12-15T01:00:51.641Z,-2.29
2022-12-15T01:03:51.673Z,-2.29
2022-12-15T01:06:51.638Z,-2.29
2022-12-15T01:09:51.641Z,-2.29
2022-12-15T01:12:51.634Z,-2.29
2022-12-15T01:15:51.659Z,-2.29
2022-12-15T01:18:51.635Z,-2.39
2022-12-15T01:21:51.640Z,-2.39
2022-12-15T01:27:51.663Z,-2.39
2022-12-15T01:30:51.635Z,-2.49
2022-12-15T01:33:51.637Z,-2.49
2022-12-15T01:36:51.646Z,-2.49
2022-12-15T01:39:51.656Z,-2.49
2022-12-15T01:42:51.630Z,-2.49
2022-12-15T01:45:51.628Z,-2.59
2022-12-15T01:48:51.629Z,-2.59
2022-12-15T01:51:51.635Z,-2.59
2022-12-15T01:54:51.627Z,-2.69
2022-12-15T01:57:51.623Z,-2.69
2022-12-15T02:00:51.666Z,-2.79
2022-12-15T02:03:51.639Z,-2.79
2022-12-15T02:06:51.631Z,-2.89
2022-12-15T02:09:51.625Z,-2.79
2022-12-15T02:12:51.628Z,-2.79
2022-12-15T02:15:51.736Z,-2.79
2022-12-15T02:18:51.620Z,-2.79
2022-12-15T02:24:51.625Z,-2.79
2022-12-15T02:27:51.635Z,-2.79
2022-12-15T02:30:51.650Z,-2.79
2022-12-15T02:33:51.643Z,-2.79
2022-12-15T02:36:51.655Z,-2.79
2022-12-15T02:39:51.652Z,-2.79
2022-12-15T02:42:51.632Z,-2.79
2022-12-15T02:45:51.696Z,-2.69
2022-12-15T02:48:51.633Z,-2.79
2022-12-15T02:51:51.632Z,-2.79
2022-12-15T02:54:51.636Z,-2.69
2022-12-15T02:57:51.636Z,-2.69
2022-12-15T03:00:51.743Z,-2.69
2022-12-15T03:03:51.633Z,-2.69
2022-12-15T03:06:54.752Z,-2.69
2022-12-15T03:09:51.629Z,-2.69
2022-12-15T03:12:51.623Z,-2.69
2022-12-15T03:15:51.623Z,-2.69
2022-12-15T03:18:51.625Z,-2.69
2022-12-15T03:21:51.623Z,-2.69
2022-12-15T03:24:51.637Z,-2.69
2022-12-15T03:27:51.620Z,-2.69
2022-12-15T03:30:51.612Z,-2.69
2022-12-15T03:33:51.614Z,-2.69
2022-12-15T03:36:51.615Z,-2.69
2022-12-15T03:39:51.650Z,-2.79
2022-12-15T03:42:51.628Z,-2.79
2022-12-15T03:45:51.683Z,-2.89
2022-12-15T03:48:51.615Z,-2.89
2022-12-15T03:51:51.648Z,-2.89
2022-12-15T03:54:51.611Z,-2.89
2022-12-15T03:57:51.616Z,-2.99
2022-12-15T04:00:51.606Z,-2.99
2022-12-15T04:03:54.291Z,-2.99
2022-12-15T04:06:51.606Z,-2.99
2022-12-15T04:12:51.601Z,-2.99
2022-12-15T04:15:51.612Z,-2.89
2022-12-15T04:18:51.601Z,-2.79
2022-12-15T04:21:51.604Z,-2.79
2022-12-15T04:24:51.602Z,-2.79
2022-12-15T04:27:51.609Z,-2.79
2022-12-15T04:30:51.633Z,-2.69
2022-12-15T04:33:51.605Z,-2.69
2022-12-15T04:36:51.594Z,-2.69
2022-12-15T04:39:51.597Z,-2.69
2022-12-15T04:42:51.593Z,-2.69
2022-12-15T04:45:51.665Z,-2.69
2022-12-15T04:48:51.593Z,-2.59
2022-12-15T04:51:51.596Z,-2.59
2022-12-15T04:54:51.595Z,-2.69
2022-12-15T04:57:51.593Z,-2.69
2022-12-15T05:00:51.597Z,-2.79
2022-12-15T05:03:51.645Z,-2.79
2022-12-15T05:06:51.593Z,-2.89
2022-12-15T05:09:51.586Z,-2.99
2022-12-15T05:12:51.590Z,-2.99
2022-12-15T05:15:51.702Z,-2.99
2022-12-15T05:18:51.592Z,-2.99
2022-12-15T05:21:51.579Z,-2.99
2022-12-15T05:24:51.584Z,-2.99
2022-12-15T05:27:51.585Z,-2.99
2022-12-15T05:30:51.643Z,-2.89
2022-12-15T05:33:51.583Z,-2.79
2022-12-15T05:36:51.572Z,-2.79
2022-12-15T05:39:51.576Z,-2.79
2022-12-15T05:42:51.575Z,-2.69
2022-12-15T05:45:51.643Z,-2.69
2022-12-15T05:48:51.580Z,-2.69
2022-12-15T05:51:51.584Z,-2.59
2022-12-15T05:54:51.579Z,-2.59
2022-12-15T05:57:51.575Z,-2.49
2022-12-15T06:00:51.574Z,-2.49
2022-12-15T06:03:51.572Z,-2.49
2022-12-15T06:06:51.565Z,-2.49
2022-12-15T06:09:51.569Z,-2.39
2022-12-15T06:18:51.562Z,-2.29
2022-12-15T06:21:51.566Z,-2.29
2022-12-15T06:24:51.575Z,-2.29
2022-12-15T06:27:51.565Z,-2.19
2022-12-15T06:30:51.580Z,-2.19
2022-12-15T06:33:54.715Z,-2.19
2022-12-15T06:36:51.564Z,-2.19
2022-12-15T06:39:51.570Z,-2.09
2022-12-15T06:42:51.564Z,-2.09
2022-12-15T06:45:51.564Z,-2.09
2022-12-15T06:48:51.569Z,-2.09
2022-12-15T06:51:51.564Z,-1.99
2022-12-15T06:54:51.557Z,-1.99
2022-12-15T06:57:51.561Z,-1.99
2022-12-15T07:00:51.556Z,-1.99
2022-12-15T07:03:51.812Z,-1.99
2022-12-15T07:06:51.554Z,-1.99
2022-12-15T07:09:51.549Z,-1.99
2022-12-15T07:12:51.549Z,-1.99
2022-12-15T07:15:51.614Z,-1.99
2022-12-15T07:18:51.563Z,-1.99
2022-12-15T07:21:51.544Z,-1.99
2022-12-15T07:24:51.538Z,-1.89
2022-12-15T07:27:51.562Z,-1.89
2022-12-15T07:30:51.556Z,-1.89
2022-12-15T07:33:51.556Z,-1.89
2022-12-15T07:36:52.299Z,-1.89
2022-12-15T07:39:51.554Z,-1.89
2022-12-15T07:42:51.563Z,-1.89
2022-12-15T07:45:51.761Z,-1.89
2022-12-15T07:48:51.546Z,-1.79
2022-12-15T07:51:51.556Z,-1.79
2022-12-15T07:54:51.558Z,-1.79
2022-12-15T07:57:51.559Z,-1.79
2022-12-15T08:00:51.595Z,-1.79
2022-12-15T08:06:51.541Z,-1.79
2022-12-15T08:09:51.552Z,-1.69
2022-12-15T08:12:51.543Z,-1.69
2022-12-15T08:15:51.531Z,-1.69
2022-12-15T08:18:51.530Z,-1.69
2022-12-15T08:21:51.521Z,-1.79
2022-12-15T08:24:51.505Z,-1.69
2022-12-15T08:27:51.502Z,-1.69
2022-12-15T08:30:51.502Z,-1.69
2022-12-15T08:33:51.488Z,-1.69
2022-12-15T08:36:51.491Z,-1.69
2022-12-15T08:39:51.493Z,-1.69
2022-12-15T08:45:51.535Z,-1.59
2022-12-15T08:48:51.493Z,-1.59
2022-12-15T08:51:51.593Z,-1.59
2022-12-15T08:54:51.480Z,-1.59
2022-12-15T08:57:51.481Z,-1.59
2022-12-15T09:00:51.557Z,-1.59
2022-12-15T09:03:51.603Z,-1.59
2022-12-15T09:06:51.475Z,-1.59
2022-12-15T09:09:51.470Z,-1.59
2022-12-15T09:12:51.476Z,-1.59
2022-12-15T09:16:08.699Z,-1.49
2022-12-15T09:18:51.469Z,-1.49
2022-12-15T09:21:51.468Z,-1.49
2022-12-15T09:24:51.470Z,-1.49
2022-12-15T09:27:51.461Z,-1.49
2022-12-15T09:30:51.541Z,-1.49
2022-12-15T09:36:51.460Z,-1.49
2022-12-15T09:39:51.474Z,-1.49
2022-12-15T09:42:59.857Z,-1.39
2022-12-15T09:45:51.546Z,-1.39
2022-12-15T09:48:51.489Z,-1.39
2022-12-15T09:51:51.479Z,-1.39
2022-12-15T09:54:51.509Z,-1.39
2022-12-15T09:57:51.497Z,-1.39
2022-12-15T10:00:52.586Z,-1.49
2022-12-15T10:03:51.594Z,-1.49
2022-12-15T10:06:51.478Z,-1.39
2022-12-15T10:09:51.497Z,-1.39
2022-12-15T10:13:00.053Z,-1.39
2022-12-15T10:15:51.518Z,-1.39
2022-12-15T10:18:54.763Z,-1.39
2022-12-15T10:21:51.476Z,-1.29
2022-12-15T10:25:10.326Z,-1.29
2022-12-15T10:27:51.487Z,-1.29
2022-12-15T10:30:51.563Z,-1.29
2022-12-15T10:33:51.475Z,-1.29
2022-12-15T10:36:51.486Z,-1.29
2022-12-15T10:39:51.477Z,-1.29
2022-12-15T10:42:51.485Z,-1.29
2022-12-15T10:48:51.484Z,-1.29
2022-12-15T10:51:51.494Z,-1.29
2022-12-15T10:54:51.482Z,-1.29
2022-12-15T10:57:51.493Z,-1.29
2022-12-15T11:00:51.502Z,-1.29
2022-12-15T11:03:51.666Z,-1.29
2022-12-15T11:06:51.499Z,-1.29
2022-12-15T11:09:51.494Z,-1.29
2022-12-15T11:12:51.523Z,-1.29
2022-12-15T11:15:51.785Z,-1.29
2022-12-15T11:18:51.508Z,-1.29
2022-12-15T11:21:51.497Z,-1.19
2022-12-15T11:24:51.497Z,-1.19
2022-12-15T11:27:51.497Z,-1.19
2022-12-15T11:30:51.507Z,-1.19
2022-12-15T11:33:51.524Z,-1.19
2022-12-15T11:39:51.506Z,-1.09
2022-12-15T11:42:51.514Z,-1.09
2022-12-15T11:45:51.512Z,-1.09
2022-12-15T11:54:51.509Z,-0.99
2022-12-15T11:57:51.501Z,-0.99
2022-12-15T12:00:51.504Z,-0.99
2022-12-15T12:03:51.505Z,-0.99
2022-12-15T12:06:51.511Z,-0.99
2022-12-15T12:09:51.502Z,-0.99
2022-12-15T12:12:51.516Z,-0.99
2022-12-15T12:15:51.514Z,-0.99
2022-12-15T12:18:51.547Z,-0.99
2022-12-15T12:21:51.555Z,-0.99
2022-12-15T12:24:51.520Z,-0.99
2022-12-15T12:27:51.516Z,-0.89
2022-12-15T12:30:51.509Z,-0.89
2022-12-15T12:33:51.510Z,-0.89
2022-12-15T12:36:51.493Z,-0.89
2022-12-15T12:39:51.506Z,-0.89
2022-12-15T12:42:51.502Z,-0.89
2022-12-15T12:45:51.489Z,-0.89
2022-12-15T12:48:51.498Z,-0.89
2022-12-15T12:51:51.498Z,-0.89
2022-12-15T12:54:51.498Z,-0.89
2022-12-15T12:57:51.497Z,-0.89
2022-12-15T13:00:56.621Z,-0.89
2022-12-15T13:03:51.542Z,-0.89
2022-12-15T13:06:51.504Z,-0.89
2022-12-15T13:09:51.520Z,-0.89
2022-12-15T13:12:52.522Z,-0.89
2022-12-15T13:18:51.492Z,-0.89
2022-12-15T13:21:51.482Z,-0.89
2022-12-15T13:24:51.493Z,-0.89
2022-12-15T13:27:51.496Z,-0.89
2022-12-15T13:30:51.528Z,-0.89
2022-12-15T13:33:51.570Z,-0.99
2022-12-15T13:36:54.997Z,-0.99
2022-12-15T13:39:51.481Z,-0.99
2022-12-15T13:42:58.004Z,-0.99
2022-12-15T13:45:51.715Z,-0.99
2022-12-15T13:48:51.551Z,-0.99
2022-12-15T13:51:51.880Z,-0.99
2022-12-15T13:54:51.469Z,-0.99
2022-12-15T13:57:51.484Z,-0.99
2022-12-15T14:00:51.470Z,-0.99
2022-12-15T14:03:51.505Z,-0.99
2022-12-15T14:06:51.466Z,-1.09
2022-12-15T14:09:51.470Z,-1.09
2022-12-15T14:12:51.460Z,-1.09
2022-12-15T14:15:51.459Z,-1.09
2022-12-15T14:18:51.461Z,-1.09
2022-12-15T14:21:51.462Z,-1.09
2022-12-15T14:24:51.454Z,-1.09
2022-12-15T14:27:51.453Z,-1.09
2022-12-15T14:30:51.459Z,-1.09
2022-12-15T14:33:51.450Z,-1.09
2022-12-15T14:36:51.452Z,-1.19
2022-12-15T14:39:51.450Z,-1.19
2022-12-15T14:42:51.449Z,-1.19
2022-12-15T14:45:51.489Z,-1.19
2022-12-15T14:48:51.444Z,-1.19
2022-12-15T14:51:51.453Z,-1.19
2022-12-15T14:54:51.452Z,-1.29
2022-12-15T14:57:51.452Z,-1.29
2022-12-15T15:00:51.448Z,-1.29
2022-12-15T15:06:52.258Z,-1.29
2022-12-15T15:09:51.440Z,-1.29
2022-12-15T15:12:51.437Z,-1.29
2022-12-15T15:15:51.438Z,-1.39
2022-12-15T15:18:51.436Z,-1.39
2022-12-15T15:21:51.435Z,-1.39
2022-12-15T15:24:51.435Z,-1.39
2022-12-15T15:27:51.429Z,-1.49
2022-12-15T15:30:51.475Z,-1.49
2022-12-15T15:33:51.424Z,-1.49
2022-12-15T15:36:51.439Z,-1.49
2022-12-15T15:39:51.426Z,-1.49
2022-12-15T15:42:51.423Z,-1.59
2022-12-15T15:45:51.485Z,-1.59
2022-12-15T15:48:51.421Z,-1.59
2022-12-15T15:51:51.497Z,-1.59
2022-12-15T15:54:51.426Z,-1.59
2022-12-15T15:57:51.424Z,-1.69
2022-12-15T16:00:51.429Z,-1.69
2022-12-15T16:03:51.460Z,-1.69
2022-12-15T16:06:51.424Z,-1.69
2022-12-15T16:09:51.435Z,-1.79
2022-12-15T16:12:51.420Z,-1.79
2022-12-15T16:15:51.486Z,-1.89
2022-12-15T16:18:51.429Z,-1.89
2022-12-15T16:21:51.431Z,-1.89
2022-12-15T16:24:51.430Z,-1.89
2022-12-15T16:27:51.418Z,-1.89
2022-12-15T16:30:51.460Z,-1.89
2022-12-15T16:33:51.464Z,-1.99
2022-12-15T16:36:51.412Z,-1.99
2022-12-15T16:39:51.419Z,-1.99
2022-12-15T16:42:51.413Z,-1.99
2022-12-15T16:45:51.424Z,-1.99
2022-12-15T16:48:51.657Z,-1.99
2022-12-15T16:51:51.415Z,-1.99
2022-12-15T16:54:51.412Z,-1.99
2022-12-15T16:57:51.407Z,-1.99
2022-12-15T17:00:51.411Z,-1.99
2022-12-15T17:03:51.424Z,-1.99
2022-12-15T17:06:51.407Z,-1.99
2022-12-15T17:09:51.405Z,-1.99
2022-12-15T17:12:51.408Z,-1.99
2022-12-15T17:15:51.464Z,-1.99
2022-12-15T17:18:51.405Z,-1.99
2022-12-15T17:21:51.406Z,-2.09
2022-12-15T17:24:51.426Z,-2.09
2022-12-15T17:27:51.393Z,-2.09
2022-12-15T17:30:51.496Z,-1.99
2022-12-15T17:33:51.389Z,-1.99
2022-12-15T17:36:51.386Z,-1.99
2022-12-15T17:39:51.716Z,-1.99
2022-12-15T17:42:51.394Z,-1.99
2022-12-15T17:45:51.387Z,-1.99
2022-12-15T17:48:51.385Z,-1.99
2022-12-15T17:51:51.401Z,-1.99
2022-12-15T17:54:51.380Z,-1.99
2022-12-15T17:57:51.380Z,-1.99
2022-12-15T18:00:51.377Z,-1.99
2022-12-15T18:03:51.458Z,-1.99
2022-12-15T18:06:53.394Z,-1.99
2022-12-15T18:09:51.398Z,-1.99
2022-12-15T18:12:51.376Z,-1.99
2022-12-15T18:18:51.375Z,-1.99
2022-12-15T18:21:51.373Z,-1.99
2022-12-15T18:24:51.383Z,-1.99
2022-12-15T18:27:51.376Z,-1.99
2022-12-15T18:30:51.368Z,-1.99
2022-12-15T18:33:51.372Z,-1.99
2022-12-15T18:36:51.371Z,-1.99
2022-12-15T18:39:51.360Z,-1.99
2022-12-15T18:42:51.368Z,-1.99
2022-12-15T18:45:51.369Z,-1.99
2022-12-15T18:48:51.363Z,-1.99
2022-12-15T18:51:51.364Z,-1.99
2022-12-15T18:54:51.377Z,-1.99
2022-12-15T18:57:51.368Z,-1.99
2022-12-15T19:00:51.377Z,-1.99
2022-12-15T19:03:51.363Z,-1.99
2022-12-15T19:06:51.367Z,-1.99
2022-12-15T19:09:51.399Z,-1.99
2022-12-15T19:12:55.345Z,-1.99
2022-12-15T19:15:51.375Z,-1.99
2022-12-15T19:18:51.389Z,-1.99
2022-12-15T19:21:51.375Z,-2.09
2022-12-15T19:24:51.380Z,-2.09
2022-12-15T19:27:51.376Z,-2.09
2022-12-15T19:30:51.378Z,-2.09
2022-12-15T19:33:51.380Z,-2.09
2022-12-15T19:36:51.373Z,-2.19
2022-12-15T19:39:51.380Z,-2.19
2022-12-15T19:42:51.384Z,-2.19
2022-12-15T19:45:51.480Z,-2.19
2022-12-15T19:48:51.378Z,-2.19
2022-12-15T19:51:51.381Z,-2.19
2022-12-15T19:54:51.377Z,-2.19
2022-12-15T19:57:51.379Z,-2.29
2022-12-15T20:00:51.408Z,-2.29
2022-12-15T20:03:51.388Z,-2.29
2022-12-15T20:06:51.369Z,-2.29
2022-12-15T20:09:51.368Z,-2.19
2022-12-15T20:12:51.365Z,-2.29
2022-12-15T20:15:51.376Z,-2.29
2022-12-15T20:18:51.370Z,-2.29
2022-12-15T20:21:51.369Z,-2.29
2022-12-15T20:24:51.380Z,-2.29
2022-12-15T20:27:51.381Z,-2.29
2022-12-15T20:30:51.377Z,-2.29
2022-12-15T20:33:51.377Z,-2.29
2022-12-15T20:36:51.367Z,-2.29
2022-12-15T20:39:55.627Z,-2.29
2022-12-15T20:42:51.407Z,-2.29
2022-12-15T20:45:56.334Z,-2.29
2022-12-15T20:48:51.368Z,-2.29
2022-12-15T20:51:51.358Z,-2.29
2022-12-15T20:54:51.360Z,-2.29
2022-12-15T20:57:51.360Z,-2.29
2022-12-15T21:00:51.784Z,-2.29
2022-12-15T21:03:51.939Z,-2.29
2022-12-15T21:06:54.753Z,-2.39
2022-12-15T21:09:51.362Z,-2.29
2022-12-15T21:12:51.352Z,-2.29
2022-12-15T21:15:51.355Z,-2.29
2022-12-15T21:19:18.452Z,-2.29
2022-12-15T21:21:51.810Z,-2.29
2022-12-15T21:24:51.347Z,-2.29
2022-12-15T21:27:51.350Z,-2.29
2022-12-15T21:30:51.422Z,-2.29
2022-12-15T21:33:51.342Z,-2.29
2022-12-15T21:36:51.805Z,-2.29
2022-12-15T21:39:51.349Z,-2.29
2022-12-15T21:42:51.337Z,-2.29
2022-12-15T21:45:51.367Z,-2.29
2022-12-15T21:48:51.336Z,-2.29
2022-12-15T21:51:51.851Z,-2.29
2022-12-15T21:54:51.387Z,-2.29
2022-12-15T21:57:51.627Z,-2.29
2022-12-15T22:00:51.347Z,-2.19
2022-12-15T22:03:51.354Z,-2.19
2022-12-15T22:06:51.350Z,-2.19
2022-12-15T22:09:51.719Z,-2.19
2022-12-15T22:12:54.698Z,-2.09
2022-12-15T22:15:51.641Z,-2.09
2022-12-15T22:18:51.346Z,-2.09
2022-12-15T22:21:51.950Z,-2.09
2022-12-15T22:24:51.342Z,-2.09
2022-12-15T22:27:51.704Z,-2.09
2022-12-15T22:30:51.384Z,-2.09
2022-12-15T22:33:51.340Z,-2.09
2022-12-15T22:36:51.922Z,-2.19
2022-12-15T22:39:51.676Z,-2.19
2022-12-15T22:42:51.325Z,-2.09
2022-12-15T22:45:51.324Z,-2.09
2022-12-15T22:48:51.334Z,-2.09
2022-12-15T22:51:51.333Z,-2.09
2022-12-15T22:54:51.326Z,-2.09
2022-12-15T22:57:51.338Z,-2.19
2022-12-15T23:00:51.326Z,-2.19
2022-12-15T23:03:51.320Z,-2.19
2022-12-15T23:06:51.741Z,-2.19
2022-12-15T23:09:51.324Z,-2.19
2022-12-15T23:12:51.330Z,-2.19
2022-12-15T23:15:51.351Z,-2.19
2022-12-15T23:18:51.724Z,-2.19
2022-12-15T23:21:51.324Z,-2.19
2022-12-15T23:24:51.312Z,-2.19
2022-12-15T23:27:51.317Z,-2.19
2022-12-15T23:30:51.348Z,-2.19
2022-12-15T23:33:52.062Z,-2.29
2022-12-15T23:36:51.312Z,-2.29
2022-12-15T23:39:51.318Z,-2.29
2022-12-15T23:42:51.301Z,-2.29
2022-12-15T23:45:51.301Z,-2.29
2022-12-15T23:48:51.991Z,-2.19
2022-12-15T23:51:51.293Z,-2.19
2022-12-15T23:54:51.291Z,-2.29
2022-12-15T23:57:51.292Z,-2.29
